To NAV CANADA Home Page Login to a new session Search on AWWS site Disclaimer Vers la page française équivalente Tips FAQ What's new on the site To the Forecasts and Observations / NOTAM section To "File a Flight Plan" website Publications and other links Update of the User's profile FIC Telephone Numbers My Weather Data Folder Route Weather Data Regional Weather Data Local Weather Data To the Forecasts and Observations / NOTAM section
Request Generated 02/23/2020 at 09:37:34 UTC . Weather information available at that time is displayed.


Save this request

METAR/TAF

ESTEVAN REGIONAL/SK    (show WxCam)

METAR CYEN 230900Z AUTO 30015G20KT 9SM CLR M03/M06 A2984 RMK SLP134=
METAR CYEN 230800Z AUTO 30020G26KT 9SM CLR M02/M05 A2980 RMK PRESRR SLP123=
METAR CYEN 230700Z AUTO 31021G29KT 9SM CLR M02/M05 A2977 RMK SLP113=

*** REMARK        : Forecast period has ended; this was the last TAF issued
*** REMARQUE : La période de prévision est échue; ceci était le dernier TAF qui a été émis
TAF CYEN 221749Z 2218/2224 25008KT P6SM SKC
FM222100 25012KT P6SM SCT120 SCT260
RMK FCST BASED ON AUTO OBS. NXT FCST WILL BE ISSUED AT 231145Z=

MOOSE JAW/AIR VICE MARSHAL C.M. MCEWEN/SK    

CYMJ - METAR not available

*** REMARK        : Forecast period has ended; this was the last TAF issued
*** REMARQUE : La période de prévision est échue; ceci était le dernier TAF qui a été émis
TAF AMD CYMJ 212315Z 2118/2206 FCST CNCLD DUE END OF FLYING PROGRAM
RMK NXT FCST WILL BE ISSUED AT 231915Z=

REGINA INTL/SK    

METAR CYQR 230900Z 27013KT 15SM SKC M06/M08 A2986 RMK SLP145=
METAR CYQR 230800Z 28013G19KT 15SM SKC M04/M07 A2984 RMK SLP138=
METAR CYQR 230700Z 29014G19KT 15SM FEW120 M03/M06 A2983 RMK AC1 SLP132=

TAF CYQR 230541Z 2306/2406 29015KT P6SM FEW020 SCT120
BECMG 2306/2308 SKC
FM231200 29012KT P6SM SKC
FM240000 VRB03KT P6SM SCT220
FM240300 12008KT P6SM BKN120
RMK NXT FCST BY 231200Z=

SASKATOON/JOHN G. DIEFENBAKER INTL/SK    

METAR CYXE 230900Z 28013KT 15SM SKC M07/M11 A2984 RMK SLP139=
METAR CYXE 230800Z 28013KT 15SM SKC M07/M10 A2983 RMK SLP133=
METAR CYXE 230700Z 25010KT 15SM SKC M08/M11 A2982 RMK SLP132=

TAF CYXE 230541Z 2306/2406 29015KT P6SM FEW050 FEW140
FM231200 28010KT P6SM SKC
BECMG 2319/2321 22008KT
FM240200 12006KT P6SM BKN180
RMK NXT FCST BY 231200Z=

YORKTON MUNICIPALITY/SK    (show WxCam)

METAR CYQV 230900Z AUTO 29020G27KT 9SM FEW140 M03/M05 A2970 RMK SLP083=
METAR CYQV 230800Z AUTO 29013KT 9SM CLR M03/M06 A2968 RMK SLP078=
METAR CYQV 230700Z AUTO 30014G20KT 9SM FEW140 M03/M06 A2966 RMK SLP072=

*** REMARK        : Forecast period has ended; this was the last TAF issued
*** REMARQUE : La période de prévision est échue; ceci était le dernier TAF qui a été émis
TAF AMD CYQV 230223Z 2302/2306 18006KT P6SM SCT080 OVC120 TEMPO
2302/2305 2SM -SHSN BKN015 OVC060
BECMG 2303/2305 27010KT
FM230500 27010KT P6SM SCT030 BKN080 TEMPO 2305/2306 BKN020 BKN080
BECMG 2305/2306 30018G28KT
RMK FCST BASED ON AUTO OBS. NXT FCST WILL BE ISSUED AT 231145Z=

BRANDON MUNICIPALITY/MB    

METAR CYBR 230900Z 30018G24KT 15SM FEW250 M03/M06 A2965 RMK CI2 SLP064=
METAR CYBR 230800Z 28011KT 15SM SCT150 M06/M08 A2962 RMK AC3 SLP056=
METAR CYBR 230700Z 27011KT 15SM BKN150 M05/M07 A2961 RMK AC7 PRESRR SLP053=

TAF CYBR 230541Z 2306/2318 23005KT P6SM BKN100
BECMG 2306/2308 27015G25KT
FM230800 29015G25KT P6SM SCT020 SCT080 TEMPO 2308/2312 SCT008
BKN020
FM231200 29020G30KT P6SM SCT008 BKN020 TEMPO 2312/2318 SCT025
RMK NXT FCST BY 231200Z=

PORTAGE LA PRAIRIE/SOUTHPORT/MB    

CYPG - METAR not available

*** REMARK        : Forecast period has ended; this was the last TAF issued
*** REMARQUE : La période de prévision est échue; ceci était le dernier TAF qui a été émis
TAF AMD CYPG 212310Z 2118/2206 FCST CNCLD DUE END OF FLYING PROGRAM
RMK NXT FCST WILL BE ISSUED AT 241315Z=

WINNIPEG/JAMES ARMSTRONG RICHARDSON INTL/MB    

METAR CYWG 230900Z 18007KT 15SM OVC110 M05/M07 A2958 RMK AC8 SLP031=
METAR CYWG 230800Z 21009KT 140V220 15SM OVC120 M05/M07 A2960 RMK AC8 SLP038=
METAR CYWG 230700Z 15006KT 15SM OVC120 M05/M07 A2960 RMK AC8 SLP040=

TAF CYWG 230541Z 2306/2406 19006KT P6SM BKN120
BECMG 2311/2313 29020G30KT
FM231300 29020G30KT P6SM BKN025 TEMPO 2313/2318 4SM -SN BLSN
BKN012 OVC025
BECMG 2313/2315 29025G35KT
FM232000 29020G30KT P6SM SCT030
BECMG 2323/2401 29012KT
RMK NXT FCST BY 231200Z=


Your time UTC time
Weather data provided by Environment Canada and NAV CANADA